createdAt,value
2018-12-02T00:00:55.210Z,2.1
2018-12-02T00:01:56.023Z,2.2
2018-12-02T00:02:56.732Z,1.9
2018-12-02T00:03:57.446Z,2.5
2018-12-02T00:04:58.177Z,2.6
2018-12-02T00:05:58.876Z,2.4
2018-12-02T00:06:59.835Z,2.1
2018-12-02T00:08:00.801Z,2.1
2018-12-02T00:09:01.534Z,2.9
2018-12-02T00:10:02.240Z,2.4
2018-12-02T00:11:02.957Z,1.8
2018-12-02T00:12:03.666Z,2.2
2018-12-02T00:13:04.485Z,2.1
2018-12-02T00:14:05.182Z,2.0
2018-12-02T00:15:06.140Z,2.0
2018-12-02T00:16:07.101Z,2.1
2018-12-02T00:17:07.813Z,2.3
2018-12-02T00:18:08.819Z,1.8
2018-12-02T00:19:09.528Z,1.7
2018-12-02T00:20:10.248Z,2.1
2018-12-02T00:21:10.955Z,2.0
2018-12-02T00:22:11.663Z,1.8
2018-12-02T00:23:12.377Z,2.0
2018-12-02T00:24:13.097Z,1.9
2018-12-02T00:25:13.816Z,1.8
2018-12-02T00:26:14.524Z,1.9
2018-12-02T00:27:15.233Z,1.5
2018-12-02T00:28:15.956Z,1.6
2018-12-02T00:29:16.965Z,1.7
2018-12-02T00:30:17.925Z,1.9
2018-12-02T00:31:18.644Z,1.5
2018-12-02T00:32:19.353Z,1.8
2018-12-02T00:33:20.064Z,1.6
2018-12-02T00:34:20.883Z,1.5
2018-12-02T00:35:21.591Z,1.8
2018-12-02T00:36:22.300Z,1.3
2018-12-02T00:37:23.009Z,1.4
2018-12-02T00:38:23.724Z,1.7
2018-12-02T00:39:24.492Z,1.7
2018-12-02T00:40:25.219Z,1.9
2018-12-02T00:41:25.932Z,1.2
2018-12-02T00:42:26.637Z,1.8
2018-12-02T00:43:27.348Z,1.7
2018-12-02T00:44:28.065Z,1.5
2018-12-02T00:45:29.023Z,1.8
2018-12-02T00:46:29.745Z,1.5
2018-12-02T00:47:30.558Z,1.4
2018-12-02T00:48:31.271Z,1.9
2018-12-02T00:49:31.985Z,1.5
2018-12-02T00:50:32.687Z,1.3
2018-12-02T00:51:33.407Z,1.6
2018-12-02T00:52:34.228Z,1.6
2018-12-02T00:53:34.935Z,1.3
2018-12-02T00:54:35.636Z,1.5
2018-12-02T00:55:36.635Z,1.5
2018-12-02T00:56:37.344Z,1.4
2018-12-02T00:57:38.198Z,1.7
2018-12-02T00:58:38.911Z,1.8
2018-12-02T00:59:39.628Z,1.8
2018-12-02T01:00:40.335Z,1.6
2018-12-02T01:01:41.052Z,1.3
2018-12-02T01:02:41.926Z,1.5
2018-12-02T01:03:42.641Z,1.5
2018-12-02T01:04:43.353Z,1.5
2018-12-02T01:05:44.322Z,1.5
2018-12-02T01:06:45.038Z,1.3
2018-12-02T01:07:45.754Z,1.4
2018-12-02T01:08:46.467Z,1.3
2018-12-02T01:09:47.176Z,1.6
2018-12-02T01:10:47.935Z,1.4
2018-12-02T01:11:48.913Z,1.4
2018-12-02T01:12:49.620Z,1.3
2018-12-02T01:13:50.338Z,1.5
2018-12-02T01:14:51.053Z,1.4
2018-12-02T01:15:51.769Z,1.4
2018-12-02T01:16:52.485Z,1.5
2018-12-02T01:17:53.202Z,1.1
2018-12-02T01:18:53.913Z,1.5
2018-12-02T01:19:54.618Z,1.4
2018-12-02T01:20:55.725Z,1.8
2018-12-02T01:21:56.437Z,1.3
2018-12-02T01:22:57.164Z,1.6
2018-12-02T01:23:57.869Z,1.4
2018-12-02T01:24:58.822Z,1.3
2018-12-02T01:25:59.527Z,1.2
2018-12-02T01:27:00.490Z,1.3
2018-12-02T01:28:01.205Z,1.2
2018-12-02T01:29:02.182Z,1.4
2018-12-02T01:30:02.891Z,1.2
2018-12-02T01:31:03.601Z,1.4
2018-12-02T01:32:04.319Z,1.1
2018-12-02T01:33:05.035Z,1.3
2018-12-02T01:34:05.738Z,1.3
2018-12-02T01:35:06.450Z,1.0
2018-12-02T01:36:07.166Z,1.1
2018-12-02T01:37:07.880Z,1.2
2018-12-02T01:38:08.590Z,1.3
2018-12-02T01:39:09.308Z,1.1
2018-12-02T01:40:10.011Z,1.2
2018-12-02T01:41:10.726Z,1.3
2018-12-02T01:42:11.444Z,0.9
2018-12-02T01:43:12.305Z,1.1
2018-12-02T01:44:13.012Z,1.3
2018-12-02T01:45:13.727Z,1.1
2018-12-02T01:46:14.436Z,1.2
2018-12-02T01:47:15.149Z,1.0
2018-12-02T01:48:15.855Z,0.9
2018-12-02T01:49:16.568Z,0.9
2018-12-02T01:50:17.282Z,1.3
2018-12-02T01:51:18.017Z,1.3
2018-12-02T01:52:18.737Z,1.0
2018-12-02T01:53:19.450Z,0.9
2018-12-02T01:54:20.163Z,0.9
2018-12-02T01:55:20.863Z,1.1
2018-12-02T01:56:21.579Z,0.9
2018-12-02T01:57:22.296Z,0.8
2018-12-02T01:58:23.012Z,1.0
2018-12-02T01:59:23.729Z,0.8
2018-12-02T02:00:24.441Z,0.6
2018-12-02T02:01:25.161Z,0.8
2018-12-02T02:02:25.878Z,0.8
2018-12-02T02:03:26.631Z,0.9
2018-12-02T02:04:27.345Z,0.9
2018-12-02T02:05:28.057Z,0.7
2018-12-02T02:06:28.778Z,0.8
2018-12-02T02:07:29.502Z,1.0
2018-12-02T02:08:30.207Z,0.7
2018-12-02T02:09:30.915Z,0.7
2018-12-02T02:10:31.629Z,1.3
2018-12-02T02:11:32.336Z,0.9
2018-12-02T02:12:33.048Z,0.6
2018-12-02T02:13:34.022Z,0.9
2018-12-02T02:14:34.723Z,0.9
2018-12-02T02:15:35.442Z,0.8
2018-12-02T02:16:36.425Z,0.7
2018-12-02T02:17:37.124Z,0.6
2018-12-02T02:18:37.848Z,0.6
2018-12-02T02:19:38.561Z,0.9
2018-12-02T02:20:39.268Z,0.8
2018-12-02T02:21:40.238Z,0.6
2018-12-02T02:22:40.953Z,0.7
2018-12-02T02:23:41.671Z,0.7
2018-12-02T02:24:42.488Z,0.8
2018-12-02T02:25:43.200Z,0.7
2018-12-02T02:26:44.166Z,1.0
2018-12-02T02:27:44.878Z,0.9
2018-12-02T02:28:45.600Z,0.9
2018-12-02T02:29:46.320Z,0.6
2018-12-02T02:30:47.032Z,0.6
2018-12-02T02:31:47.759Z,0.9
2018-12-02T02:32:48.471Z,0.8
2018-12-02T02:33:49.188Z,0.8
2018-12-02T02:34:49.905Z,1.1
2018-12-02T02:35:50.614Z,0.7
2018-12-02T02:36:51.576Z,0.7
2018-12-02T02:37:52.301Z,0.6
2018-12-02T02:38:53.009Z,0.8
2018-12-02T02:39:53.721Z,0.6
2018-12-02T02:40:54.434Z,0.8
2018-12-02T02:41:55.193Z,0.7
2018-12-02T02:42:55.901Z,0.7
2018-12-02T02:43:56.615Z,0.7
2018-12-02T02:44:57.347Z,0.7
2018-12-02T02:45:58.312Z,0.8
2018-12-02T02:46:59.077Z,0.8
2018-12-02T02:47:59.817Z,0.8
2018-12-02T02:49:00.532Z,0.9
2018-12-02T02:50:01.263Z,0.7
2018-12-02T02:51:01.984Z,0.8
2018-12-02T02:52:02.695Z,0.9
2018-12-02T02:53:03.476Z,0.9
2018-12-02T02:54:04.184Z,0.9
2018-12-02T02:55:04.889Z,1.0
2018-12-02T02:56:05.601Z,0.8
2018-12-02T02:57:06.561Z,0.9
2018-12-02T02:58:07.323Z,1.0
2018-12-02T02:59:08.043Z,0.9
2018-12-02T03:00:08.747Z,1.1
2018-12-02T03:01:09.709Z,1.2
2018-12-02T03:02:10.423Z,1.2
2018-12-02T03:03:11.145Z,1.0
2018-12-02T03:04:11.878Z,1.0
2018-12-02T03:05:12.585Z,1.3
2018-12-02T03:06:13.291Z,1.0
2018-12-02T03:07:14.013Z,1.1
2018-12-02T03:08:14.727Z,0.9
2018-12-02T03:09:15.435Z,1.2
2018-12-02T03:10:16.159Z,1.3
2018-12-02T03:11:16.865Z,0.9
2018-12-02T03:12:17.580Z,1.0
2018-12-02T03:13:18.293Z,1.2
2018-12-02T03:14:19.006Z,1.1
2018-12-02T03:15:19.715Z,0.9
2018-12-02T03:16:20.682Z,1.0
2018-12-02T03:17:21.390Z,1.3
2018-12-02T03:18:22.096Z,1.0
2018-12-02T03:19:22.801Z,1.1
2018-12-02T03:20:23.518Z,1.0
2018-12-02T03:21:24.223Z,1.1
2018-12-02T03:22:24.946Z,1.0
2018-12-02T03:23:25.656Z,1.0
2018-12-02T03:24:26.362Z,1.1
2018-12-02T03:25:27.069Z,1.2
2018-12-02T03:26:27.886Z,1.2
2018-12-02T03:27:28.849Z,1.1
2018-12-02T03:28:29.560Z,1.0
2018-12-02T03:29:30.270Z,1.0
2018-12-02T03:30:31.229Z,1.1
2018-12-02T03:31:31.937Z,1.0
2018-12-02T03:32:32.652Z,1.3
2018-12-02T03:33:33.375Z,1.2
2018-12-02T03:34:34.339Z,1.1
2018-12-02T03:35:35.056Z,1.1
2018-12-02T03:36:35.757Z,1.1
2018-12-02T03:37:36.736Z,1.2
2018-12-02T03:38:37.533Z,1.2
2018-12-02T03:39:38.259Z,1.2
2018-12-02T03:40:38.955Z,1.2
2018-12-02T03:41:39.909Z,1.2
2018-12-02T03:42:40.614Z,1.5
2018-12-02T03:43:41.329Z,1.3
2018-12-02T03:44:42.049Z,1.9
2018-12-02T03:45:42.756Z,1.3
2018-12-02T03:46:43.705Z,1.4
2018-12-02T03:47:44.415Z,1.4
2018-12-02T03:48:45.175Z,1.4
2018-12-02T03:49:45.836Z,1.4
2018-12-02T03:50:46.548Z,1.6
2018-12-02T03:51:47.274Z,1.4
2018-12-02T03:52:47.974Z,1.6
2018-12-02T03:53:48.683Z,1.4
2018-12-02T03:54:49.636Z,1.4
2018-12-02T03:55:50.357Z,1.5
2018-12-02T03:56:51.075Z,1.4
2018-12-02T03:57:51.800Z,1.5
2018-12-02T03:58:52.630Z,1.3
2018-12-02T03:59:53.328Z,1.6
2018-12-02T04:00:54.042Z,1.4
2018-12-02T04:01:54.753Z,1.9
2018-12-02T04:02:55.460Z,1.7
2018-12-02T04:03:56.576Z,1.3
2018-12-02T04:04:57.532Z,1.9
2018-12-02T04:05:58.246Z,1.8
2018-12-02T04:06:58.951Z,1.7
2018-12-02T04:07:59.663Z,1.6
2018-12-02T04:09:00.384Z,1.7
2018-12-02T04:10:01.093Z,1.6
2018-12-02T04:11:02.055Z,1.7
2018-12-02T04:12:02.764Z,1.7
2018-12-02T04:13:03.727Z,1.7
2018-12-02T04:14:04.538Z,1.9
2018-12-02T04:15:05.244Z,2.1
2018-12-02T04:16:05.953Z,1.7
2018-12-02T04:17:06.665Z,2.0
2018-12-02T04:18:07.368Z,2.1
2018-12-02T04:19:08.129Z,2.1
2018-12-02T04:20:08.840Z,2.1
2018-12-02T04:21:09.551Z,2.0
2018-12-02T04:22:10.269Z,2.5
2018-12-02T04:23:10.989Z,1.7
2018-12-02T04:24:11.752Z,2.2
2018-12-02T04:25:12.466Z,2.0
2018-12-02T04:26:13.434Z,6.3
2018-12-02T04:27:14.155Z,7.3
2018-12-02T04:28:14.856Z,2.3
2018-12-02T04:29:15.831Z,2.0
2018-12-02T04:30:16.542Z,1.8
2018-12-02T04:31:17.244Z,2.2
2018-12-02T04:32:17.962Z,1.9
2018-12-02T04:33:18.681Z,1.9
2018-12-02T04:34:19.412Z,2.0
2018-12-02T04:35:20.109Z,1.9
2018-12-02T04:36:20.803Z,2.0
2018-12-02T04:37:21.517Z,1.9
2018-12-02T04:38:22.235Z,2.1
2018-12-02T04:39:22.951Z,1.6
2018-12-02T04:40:23.765Z,1.9
2018-12-02T04:41:24.485Z,2.1
2018-12-02T04:42:25.183Z,1.9
2018-12-02T04:43:25.902Z,1.7
2018-12-02T04:44:26.604Z,1.8
2018-12-02T04:45:27.373Z,1.9
2018-12-02T04:46:28.356Z,1.6
2018-12-02T04:47:29.063Z,2.7
2018-12-02T04:48:29.775Z,2.6
2018-12-02T04:49:30.488Z,2.0
2018-12-02T04:50:31.192Z,1.8
2018-12-02T04:51:32.471Z,1.8
2018-12-02T04:52:33.438Z,1.8
2018-12-02T04:53:34.409Z,1.8
2018-12-02T04:54:35.378Z,3.8
2018-12-02T04:55:36.338Z,2.2
2018-12-02T04:56:37.050Z,1.7
2018-12-02T04:57:37.771Z,1.9
2018-12-02T04:58:38.481Z,1.8
2018-12-02T04:59:39.191Z,1.7
2018-12-02T05:00:39.897Z,1.4
2018-12-02T05:01:40.614Z,1.8
2018-12-02T05:02:41.337Z,1.7
2018-12-02T05:03:42.066Z,1.3
2018-12-02T05:04:43.049Z,1.7
2018-12-02T05:05:43.761Z,1.7
2018-12-02T05:06:44.474Z,1.7
2018-12-02T05:07:45.178Z,1.3
2018-12-02T05:08:45.897Z,1.5
2018-12-02T05:09:46.639Z,2.0
2018-12-02T05:10:47.355Z,1.6
2018-12-02T05:11:48.064Z,1.6
2018-12-02T05:12:48.779Z,1.9
2018-12-02T05:13:49.497Z,1.6
2018-12-02T05:14:50.215Z,1.6
2018-12-02T05:15:50.931Z,1.4
2018-12-02T05:16:51.629Z,1.5
2018-12-02T05:17:52.589Z,1.4
2018-12-02T05:18:53.359Z,1.4
2018-12-02T05:19:54.339Z,1.3
2018-12-02T05:20:55.043Z,1.5
2018-12-02T05:21:55.761Z,1.1
2018-12-02T05:22:56.479Z,1.1
2018-12-02T05:23:57.185Z,1.1
2018-12-02T05:24:57.897Z,1.5
2018-12-02T05:25:58.610Z,1.6
2018-12-02T05:26:59.341Z,1.2
2018-12-02T05:28:00.322Z,1.2
2018-12-02T05:29:01.299Z,1.3
2018-12-02T05:30:02.004Z,1.5
2018-12-02T05:31:02.727Z,1.4
2018-12-02T05:32:03.443Z,1.3
2018-12-02T05:33:04.160Z,1.0
2018-12-02T05:34:04.928Z,1.4
2018-12-02T05:35:05.652Z,1.5
2018-12-02T05:36:06.366Z,1.0
2018-12-02T05:37:07.083Z,1.3
2018-12-02T05:38:07.797Z,1.4
2018-12-02T05:39:08.921Z,1.2
2018-12-02T05:40:09.628Z,1.3
2018-12-02T05:41:10.345Z,1.3
2018-12-02T05:42:11.060Z,1.4
2018-12-02T05:43:11.770Z,1.1
2018-12-02T05:44:12.492Z,1.2
2018-12-02T05:45:13.206Z,1.5
2018-12-02T05:46:14.167Z,1.2
2018-12-02T05:47:14.878Z,1.6
2018-12-02T05:48:15.885Z,1.3
2018-12-02T05:49:16.637Z,1.5
2018-12-02T05:50:17.350Z,1.4
2018-12-02T05:51:18.067Z,1.1
2018-12-02T05:52:18.784Z,1.0
2018-12-02T05:53:19.495Z,1.0
2018-12-02T05:54:20.213Z,1.3
2018-12-02T05:55:20.935Z,1.3
2018-12-02T05:56:21.637Z,1.3
2018-12-02T05:57:22.595Z,1.4
2018-12-02T05:58:23.828Z,1.1
2018-12-02T05:59:24.682Z,1.3
2018-12-02T06:00:25.386Z,1.4
2018-12-02T06:01:26.350Z,1.0
2018-12-02T06:02:27.074Z,1.1
2018-12-02T06:03:27.866Z,1.3
2018-12-02T06:04:29.006Z,1.6
2018-12-02T06:05:29.727Z,1.4
2018-12-02T06:06:30.693Z,1.2
2018-12-02T06:07:31.441Z,1.3
2018-12-02T06:08:32.121Z,1.4
2018-12-02T06:09:32.830Z,1.3
2018-12-02T06:10:33.808Z,1.9
2018-12-02T06:11:34.527Z,1.2
2018-12-02T06:12:35.234Z,1.5
2018-12-02T06:13:35.956Z,1.5
2018-12-02T06:14:36.934Z,1.4
2018-12-02T06:15:37.633Z,1.6
2018-12-02T06:16:38.348Z,1.6
2018-12-02T06:17:39.306Z,1.7
2018-12-02T06:18:40.269Z,1.7
2018-12-02T06:19:41.002Z,1.8
2018-12-02T06:20:41.710Z,2.0
2018-12-02T06:21:42.425Z,1.9
2018-12-02T06:22:43.133Z,1.7
2018-12-02T06:23:43.849Z,1.6
2018-12-02T06:24:44.564Z,1.9
2018-12-02T06:25:46.568Z,1.7
2018-12-02T06:26:45.987Z,1.4
2018-12-02T06:27:46.698Z,1.8
2018-12-02T06:28:47.688Z,1.9
2018-12-02T06:29:48.398Z,2.0
2018-12-02T06:30:49.285Z,2.2
2018-12-02T06:31:50.422Z,2.0
2018-12-02T06:32:51.206Z,2.0
2018-12-02T06:33:51.915Z,2.3
2018-12-02T06:34:52.694Z,2.4
2018-12-02T06:35:53.405Z,2.6
2018-12-02T06:36:54.116Z,2.5
2018-12-02T06:37:54.832Z,2.7
2018-12-02T06:38:55.557Z,2.8
2018-12-02T06:39:56.256Z,3.2
2018-12-02T06:40:57.212Z,2.9
2018-12-02T06:41:57.919Z,2.5
2018-12-02T06:42:58.623Z,3.1
2018-12-02T06:43:59.342Z,2.9
2018-12-02T06:45:00.303Z,3.3
2018-12-02T06:46:01.258Z,2.6
2018-12-02T06:47:02.220Z,2.9
2018-12-02T06:48:02.967Z,3.0
2018-12-02T06:49:03.687Z,3.1
2018-12-02T06:50:04.399Z,3.1
2018-12-02T06:51:05.165Z,3.4
2018-12-02T06:52:05.886Z,3.3
2018-12-02T06:53:06.620Z,3.0
2018-12-02T06:54:07.335Z,3.7
2018-12-02T06:55:08.047Z,3.4
2018-12-02T06:56:08.815Z,3.3
2018-12-02T06:57:09.771Z,3.2
2018-12-02T06:58:10.724Z,3.2
2018-12-02T06:59:11.444Z,3.8
2018-12-02T07:00:12.159Z,3.1
2018-12-02T07:01:12.966Z,3.1
2018-12-02T07:02:13.678Z,3.4
2018-12-02T07:03:14.387Z,3.7
2018-12-02T07:04:15.091Z,3.2
2018-12-02T07:05:15.801Z,3.3
2018-12-02T07:06:16.752Z,3.2
2018-12-02T07:07:17.480Z,3.6
2018-12-02T07:08:18.190Z,3.8
2018-12-02T07:09:19.014Z,3.3
2018-12-02T07:10:19.626Z,3.0
2018-12-02T07:11:20.625Z,3.5
2018-12-02T07:12:21.448Z,3.2
2018-12-02T07:13:22.168Z,3.7
2018-12-02T07:14:22.876Z,3.9
2018-12-02T07:15:23.620Z,3.6
2018-12-02T07:16:24.346Z,3.6
2018-12-02T07:17:25.110Z,3.8
2018-12-02T07:18:25.829Z,3.6
2018-12-02T07:19:26.801Z,4.2
2018-12-02T07:20:27.510Z,3.8
2018-12-02T07:21:29.005Z,4.2
2018-12-02T07:22:29.037Z,4.2
2018-12-02T07:23:29.761Z,5.9
2018-12-02T07:24:30.727Z,4.4
2018-12-02T07:25:31.442Z,4.1
2018-12-02T07:26:33.309Z,3.6
2018-12-02T07:27:32.877Z,10.3
2018-12-02T07:28:33.608Z,4.9
2018-12-02T07:29:34.321Z,3.9
2018-12-02T07:30:35.276Z,4.3
2018-12-02T07:31:36.283Z,4.1
2018-12-02T07:32:37.233Z,11.5
2018-12-02T07:33:37.967Z,5.1
2018-12-02T07:34:38.699Z,4.4
2018-12-02T07:35:39.409Z,4.2
2018-12-02T07:36:40.123Z,4.4
2018-12-02T07:37:40.830Z,4.2
2018-12-02T07:38:41.782Z,4.3
2018-12-02T07:39:42.507Z,4.6
2018-12-02T07:40:43.234Z,4.9
2018-12-02T07:41:44.005Z,4.4
2018-12-02T07:42:44.741Z,4.6
2018-12-02T07:43:45.460Z,4.1
2018-12-02T07:44:46.183Z,4.0
2018-12-02T07:45:46.901Z,4.7
2018-12-02T07:46:47.614Z,4.5
2018-12-02T07:47:48.326Z,4.4
2018-12-02T07:48:49.044Z,4.2
2018-12-02T07:49:49.763Z,4.4
2018-12-02T07:50:50.487Z,5.2
2018-12-02T07:51:51.212Z,4.9
2018-12-02T07:52:51.930Z,5.1
2018-12-02T07:53:52.641Z,5.0
2018-12-02T07:54:53.356Z,5.0
2018-12-02T07:55:54.083Z,4.4
2018-12-02T07:56:54.797Z,5.1
2018-12-02T07:57:55.526Z,5.0
2018-12-02T07:58:56.249Z,4.2
2018-12-02T07:59:56.968Z,3.9
2018-12-02T08:00:57.686Z,4.1
2018-12-02T08:01:58.400Z,4.1
2018-12-02T08:02:59.193Z,4.1
2018-12-02T08:04:00.195Z,4.2
2018-12-02T08:05:00.903Z,3.6
2018-12-02T08:06:01.619Z,4.1
2018-12-02T08:07:02.340Z,3.7
2018-12-02T08:08:03.109Z,3.6
2018-12-02T08:09:03.819Z,3.8
2018-12-02T08:10:04.541Z,3.9
2018-12-02T08:11:05.269Z,3.3
2018-12-02T08:12:05.988Z,4.2
2018-12-02T08:13:07.154Z,3.6
2018-12-02T08:14:07.879Z,3.5
2018-12-02T08:15:08.846Z,4.0
2018-12-02T08:16:09.558Z,4.0
2018-12-02T08:17:10.268Z,3.8
2018-12-02T08:18:11.037Z,3.4
2018-12-02T08:19:11.758Z,3.5
2018-12-02T08:20:12.502Z,3.1
2018-12-02T08:21:13.235Z,3.6
2018-12-02T08:22:13.958Z,3.5
2018-12-02T08:23:14.717Z,3.0
2018-12-02T08:24:15.436Z,3.1
2018-12-02T08:25:16.145Z,2.7
2018-12-02T08:26:16.881Z,2.6
2018-12-02T08:27:17.599Z,2.5
2018-12-02T08:28:18.314Z,3.1
2018-12-02T08:29:19.053Z,2.7
2018-12-02T08:30:19.760Z,2.7
2018-12-02T08:31:20.501Z,2.4
2018-12-02T08:32:21.215Z,2.9
2018-12-02T08:33:21.961Z,2.3
2018-12-02T08:34:22.678Z,2.5
2018-12-02T08:35:23.390Z,2.4
2018-12-02T08:36:24.368Z,2.1
2018-12-02T08:37:25.078Z,2.5
2018-12-02T08:38:25.798Z,2.2
2018-12-02T08:39:26.519Z,2.1
2018-12-02T08:40:27.240Z,2.4
2018-12-02T08:41:27.956Z,2.2
2018-12-02T08:42:28.679Z,2.1
2018-12-02T08:43:29.604Z,2.3
2018-12-02T08:44:30.319Z,2.6
2018-12-02T08:45:31.040Z,1.9
2018-12-02T08:46:31.766Z,2.2
2018-12-02T08:47:32.481Z,2.2
2018-12-02T08:48:33.191Z,2.3
2018-12-02T08:49:33.915Z,2.5
2018-12-02T08:50:34.634Z,2.3
2018-12-02T08:51:35.353Z,2.5
2018-12-02T08:52:36.076Z,2.4
2018-12-02T08:53:36.818Z,2.5
2018-12-02T08:54:37.661Z,2.6
2018-12-02T08:55:38.637Z,2.7
2018-12-02T08:56:39.353Z,2.5
2018-12-02T08:57:40.084Z,2.7
2018-12-02T08:58:40.850Z,2.3
2018-12-02T08:59:41.562Z,2.4
2018-12-02T09:00:42.276Z,2.3
2018-12-02T09:01:43.016Z,2.3
2018-12-02T09:02:43.708Z,2.5
2018-12-02T09:03:44.485Z,2.0
2018-12-02T09:04:45.202Z,2.2
2018-12-02T09:05:45.925Z,2.0
2018-12-02T09:06:46.655Z,2.3
2018-12-02T09:07:47.422Z,2.0
2018-12-02T09:08:48.238Z,2.1
2018-12-02T09:09:48.952Z,1.7
2018-12-02T09:10:49.688Z,2.0
2018-12-02T09:11:50.401Z,1.7
2018-12-02T09:12:51.113Z,1.6
2018-12-02T09:13:51.895Z,1.9
2018-12-02T09:14:52.629Z,1.7
2018-12-02T09:15:53.352Z,1.7
2018-12-02T09:16:54.074Z,1.8
2018-12-02T09:17:54.800Z,1.8
2018-12-02T09:18:55.508Z,2.0
2018-12-02T09:19:56.280Z,1.6
2018-12-02T09:20:57.008Z,1.9
2018-12-02T09:21:57.721Z,2.0
2018-12-02T09:22:58.498Z,1.6
2018-12-02T09:23:59.218Z,2.0
2018-12-02T09:25:00.204Z,2.2
2018-12-02T09:26:00.916Z,1.8
2018-12-02T09:27:01.628Z,1.7
2018-12-02T09:28:02.353Z,1.7
2018-12-02T09:29:03.224Z,1.6
2018-12-02T09:30:03.955Z,1.8
2018-12-02T09:31:04.668Z,1.6
2018-12-02T09:32:05.392Z,1.8
2018-12-02T09:33:06.106Z,1.6
2018-12-02T09:34:06.822Z,1.7
2018-12-02T09:35:07.545Z,1.8
2018-12-02T09:36:08.251Z,1.8
2018-12-02T09:37:08.988Z,1.9
2018-12-02T09:38:09.692Z,2.0
2018-12-02T09:39:10.416Z,1.8
2018-12-02T09:40:11.122Z,2.2
2018-12-02T09:41:11.848Z,1.9
2018-12-02T09:42:12.558Z,2.0
2018-12-02T09:43:13.527Z,1.3
2018-12-02T09:44:14.243Z,1.3
2018-12-02T09:45:14.955Z,1.4
2018-12-02T09:46:15.962Z,1.1
2018-12-02T09:47:16.668Z,1.5
2018-12-02T09:48:17.373Z,1.2
2018-12-02T09:49:18.091Z,8.9
2018-12-02T09:50:18.811Z,5.2
2018-12-02T09:51:19.537Z,1.3
2018-12-02T09:52:20.264Z,1.1
2018-12-02T09:53:20.977Z,1.3
2018-12-02T09:54:23.399Z,1.3
2018-12-02T09:55:22.417Z,1.3
2018-12-02T09:56:23.387Z,1.4
2018-12-02T09:57:24.119Z,0.8
2018-12-02T09:58:24.830Z,1.0
2018-12-02T09:59:25.584Z,1.5
2018-12-02T10:00:26.930Z,1.1
2018-12-02T10:01:27.819Z,1.2
2018-12-02T10:02:28.661Z,0.9
2018-12-02T10:03:29.377Z,0.9
2018-12-02T10:04:30.096Z,1.2
2018-12-02T10:05:30.801Z,1.0
2018-12-02T10:06:31.521Z,0.8
2018-12-02T10:07:32.232Z,0.8
2018-12-02T10:08:32.967Z,0.9
2018-12-02T10:09:33.935Z,0.8
2018-12-02T10:10:34.750Z,0.7
2018-12-02T10:11:35.476Z,1.5
2018-12-02T10:12:36.194Z,0.7
2018-12-02T10:13:36.906Z,0.6
2018-12-02T10:14:37.866Z,0.6
2018-12-02T10:15:38.666Z,0.7
2018-12-02T10:16:39.380Z,0.6
2018-12-02T10:17:40.112Z,0.6
2018-12-02T10:18:40.890Z,0.7
2018-12-02T10:19:41.603Z,0.7
2018-12-02T10:20:42.569Z,0.8
2018-12-02T10:21:43.319Z,0.6
2018-12-02T10:22:44.038Z,0.6
2018-12-02T10:23:44.755Z,0.7
2018-12-02T10:24:45.473Z,0.6
2018-12-02T10:25:46.183Z,0.6
2018-12-02T10:26:46.909Z,0.6
2018-12-02T10:27:47.626Z,0.7
2018-12-02T10:28:48.357Z,0.7
2018-12-02T10:29:49.081Z,0.7
2018-12-02T10:30:49.789Z,4.0
2018-12-02T10:31:50.517Z,1.1
2018-12-02T10:32:51.236Z,0.7
2018-12-02T10:33:52.050Z,0.6
2018-12-02T10:34:52.769Z,0.8
2018-12-02T10:35:53.498Z,0.5
2018-12-02T10:36:54.214Z,0.5
2018-12-02T10:37:54.925Z,0.6
2018-12-02T10:38:55.756Z,0.7
2018-12-02T10:39:56.723Z,0.6
2018-12-02T10:40:57.428Z,0.6
2018-12-02T10:41:58.159Z,0.7
2018-12-02T10:42:58.878Z,0.7
2018-12-02T10:43:59.609Z,0.6
2018-12-02T10:45:00.329Z,0.8
2018-12-02T10:46:01.047Z,0.7
2018-12-02T10:47:01.775Z,0.7
2018-12-02T10:48:02.485Z,0.6
2018-12-02T10:49:03.205Z,0.6
2018-12-02T10:50:03.922Z,0.7
2018-12-02T10:51:04.643Z,0.7
2018-12-02T10:52:05.350Z,0.6
2018-12-02T10:53:06.066Z,0.7
2018-12-02T10:54:06.792Z,0.7
2018-12-02T10:55:07.510Z,0.7
2018-12-02T10:56:08.222Z,0.8
2018-12-02T10:57:08.951Z,0.6
2018-12-02T10:58:09.664Z,0.9
2018-12-02T10:59:10.407Z,0.9
2018-12-02T11:00:11.129Z,0.7
2018-12-02T11:01:11.904Z,0.8
2018-12-02T11:02:12.588Z,0.9
2018-12-02T11:03:13.323Z,0.7
2018-12-02T11:04:14.043Z,0.8
2018-12-02T11:05:14.764Z,0.9
2018-12-02T11:06:15.487Z,1.2
2018-12-02T11:07:16.201Z,0.8
2018-12-02T11:08:16.921Z,1.0
2018-12-02T11:09:17.637Z,0.9
2018-12-02T11:10:18.347Z,0.9
2018-12-02T11:11:19.077Z,0.9
2018-12-02T11:12:19.794Z,0.7
2018-12-02T11:13:21.038Z,1.1
2018-12-02T11:14:22.143Z,1.8
2018-12-02T11:15:22.984Z,1.4
2018-12-02T11:16:24.655Z,1.4
2018-12-02T11:17:25.825Z,1.4
2018-12-02T11:18:26.544Z,1.7
2018-12-02T11:19:27.270Z,1.1
2018-12-02T11:20:27.996Z,1.0
2018-12-02T11:21:30.105Z,1.0
2018-12-02T11:22:30.854Z,0.9
2018-12-02T11:23:31.596Z,1.1
2018-12-02T11:24:32.321Z,0.9
2018-12-02T11:25:33.034Z,0.8
2018-12-02T11:26:34.098Z,1.0
2018-12-02T11:27:35.880Z,1.0
2018-12-02T11:28:36.859Z,1.1
2018-12-02T11:29:37.823Z,0.9
2018-12-02T11:30:38.819Z,0.8
2018-12-02T11:31:39.528Z,0.9
2018-12-02T11:32:40.244Z,1.1
2018-12-02T11:33:40.981Z,0.9
2018-12-02T11:34:41.705Z,1.2
2018-12-02T11:35:42.429Z,1.1
2018-12-02T11:36:43.152Z,0.8
2018-12-02T11:37:43.864Z,1.0
2018-12-02T11:38:44.583Z,1.4
2018-12-02T11:39:45.299Z,1.2
2018-12-02T11:40:46.028Z,1.3
2018-12-02T11:41:46.750Z,1.3
2018-12-02T11:42:47.483Z,1.2
2018-12-02T11:43:48.201Z,1.5
2018-12-02T11:44:48.932Z,1.2
2018-12-02T11:45:49.745Z,1.1
2018-12-02T11:46:50.459Z,1.2
2018-12-02T11:47:51.138Z,1.4
2018-12-02T11:48:51.805Z,1.4
2018-12-02T11:49:52.487Z,1.4
2018-12-02T11:50:53.260Z,1.3
2018-12-02T11:51:53.934Z,1.5
2018-12-02T11:52:54.598Z,1.4
2018-12-02T11:53:55.271Z,1.4
2018-12-02T11:54:55.935Z,1.6
2018-12-02T11:55:57.187Z,1.4
2018-12-02T11:56:58.114Z,1.5
2018-12-02T11:57:58.786Z,1.5
2018-12-02T11:58:59.458Z,1.7
2018-12-02T12:00:00.144Z,1.5
2018-12-02T12:01:00.805Z,1.4
2018-12-02T12:02:01.483Z,1.8
2018-12-02T12:03:02.147Z,1.8
2018-12-02T12:04:03.062Z,1.9
2018-12-02T12:05:03.856Z,2.0
2018-12-02T12:06:04.690Z,1.7
2018-12-02T12:07:05.450Z,1.6
2018-12-02T12:08:06.265Z,2.1
2018-12-02T12:09:06.945Z,1.8
2018-12-02T12:10:07.636Z,1.9
2018-12-02T12:11:08.512Z,1.9
2018-12-02T12:12:09.233Z,2.0
2018-12-02T12:13:09.987Z,1.6
2018-12-02T12:14:10.641Z,1.9
2018-12-02T12:15:11.322Z,2.1
2018-12-02T12:16:12.249Z,2.4
2018-12-02T12:17:12.926Z,2.0
2018-12-02T12:18:13.594Z,2.6
2018-12-02T12:19:14.306Z,2.3
2018-12-02T12:20:14.981Z,2.2
2018-12-02T12:21:15.657Z,2.3
2018-12-02T12:22:16.325Z,2.7
2018-12-02T12:23:17.278Z,2.0
2018-12-02T12:24:17.943Z,2.8
2018-12-02T12:25:19.018Z,2.6
2018-12-02T12:26:19.691Z,2.6
2018-12-02T12:27:20.361Z,2.5
2018-12-02T12:28:21.338Z,2.7
2018-12-02T12:29:22.020Z,2.8
2018-12-02T12:30:22.685Z,2.8
2018-12-02T12:31:23.439Z,2.4
2018-12-02T12:32:24.410Z,2.7
2018-12-02T12:33:25.068Z,2.5
2018-12-02T12:34:25.896Z,2.3
2018-12-02T12:35:26.581Z,2.3
2018-12-02T12:36:27.247Z,2.6
2018-12-02T12:37:28.150Z,2.7
2018-12-02T12:38:29.311Z,3.3
2018-12-02T12:39:30.032Z,3.2
2018-12-02T12:40:30.911Z,3.0
2018-12-02T12:41:32.033Z,3.0
2018-12-02T12:42:32.687Z,3.1
2018-12-02T12:43:35.020Z,2.9
2018-12-02T12:44:35.884Z,3.3
2018-12-02T12:45:36.564Z,3.0
2018-12-02T12:46:37.235Z,3.4
2018-12-02T12:47:37.914Z,3.6
2018-12-02T12:48:38.587Z,4.1
2018-12-02T12:49:39.393Z,3.5
2018-12-02T12:50:40.314Z,3.9
2018-12-02T12:51:40.986Z,4.2
2018-12-02T12:52:41.980Z,4.7
2018-12-02T12:53:42.685Z,4.4
2018-12-02T12:54:43.408Z,4.6
2018-12-02T12:55:44.133Z,4.8
2018-12-02T12:56:44.850Z,5.2
2018-12-02T12:57:45.578Z,4.9
2018-12-02T12:58:46.293Z,5.1
2018-12-02T12:59:47.028Z,5.6
2018-12-02T13:00:47.740Z,5.8
2018-12-02T13:01:48.459Z,8.7
2018-12-02T13:02:49.180Z,9.9
2018-12-02T13:03:49.895Z,7.1
2018-12-02T13:04:50.654Z,7.6
2018-12-02T13:05:51.655Z,7.2
2018-12-02T13:06:52.360Z,8.4
2018-12-02T13:07:53.463Z,8.7
2018-12-02T13:08:54.273Z,9.3
2018-12-02T13:09:55.099Z,9.5
2018-12-02T13:10:57.106Z,9.6
2018-12-02T13:11:58.087Z,10.2
2018-12-02T13:12:59.451Z,10.9
2018-12-02T13:14:00.270Z,10.3
2018-12-02T13:15:01.077Z,12.4
2018-12-02T13:16:02.050Z,11.9
2018-12-02T13:17:02.838Z,11.7
2018-12-02T13:18:03.543Z,11.0
2018-12-02T13:19:04.249Z,12.5
2018-12-02T13:20:05.051Z,11.9
2018-12-02T13:21:05.778Z,12.4
2018-12-02T13:22:06.879Z,13.5
2018-12-02T13:23:07.694Z,13.3
2018-12-02T13:24:08.415Z,13.5
2018-12-02T13:25:09.174Z,12.8
2018-12-02T13:26:11.078Z,12.4
2018-12-02T13:27:12.010Z,13.4
2018-12-02T13:28:12.763Z,13.9
2018-12-02T13:29:13.490Z,13.4
2018-12-02T13:30:14.206Z,13.0
2018-12-02T13:31:14.923Z,13.7
2018-12-02T13:32:15.650Z,12.9
2018-12-02T13:33:16.423Z,13.6
2018-12-02T13:34:17.104Z,14.3
2018-12-02T13:35:17.819Z,13.1
2018-12-02T13:36:18.546Z,13.1
2018-12-02T13:37:19.266Z,13.3
2018-12-02T13:38:20.348Z,14.0
2018-12-02T13:39:21.054Z,13.3
2018-12-02T13:40:22.108Z,13.2
2018-12-02T13:41:23.498Z,13.3
2018-12-02T13:42:24.226Z,13.9
2018-12-02T13:43:24.970Z,14.1
2018-12-02T13:44:25.701Z,14.4
2018-12-02T13:45:26.414Z,13.8
2018-12-02T13:46:27.144Z,14.5
2018-12-02T13:47:27.859Z,14.4
2018-12-02T13:48:28.579Z,14.0
2018-12-02T13:49:29.307Z,13.7
2018-12-02T13:50:30.029Z,13.3
2018-12-02T13:51:30.751Z,13.9
2018-12-02T13:52:31.497Z,13.2
2018-12-02T13:53:32.464Z,12.6
2018-12-02T13:54:33.178Z,11.9
2018-12-02T13:55:33.895Z,13.0